Terminal Aerodrome Forecast
Issued by NWS Albuquerque, NM

Home | Current Version | Previous Version | Text Only | Print | Product List | Glossary On
Versions: 1 2 3 4 5 6 7 8 9 10 11 12 13 14
778
FTUS45 KABQ 262324
TAFABQ
TAF
KABQ 262324Z 2700/2724 30012G20KT P6SM SCT070 SCT250
     FM270100 33010G18KT P6SM SCT250
     FM270400 36006KT P6SM SCT250
     FM271600 20007KT P6SM SCT100 SCT250
     FM272000 24012G18KT P6SM SCT070 BKN100=

USA.gov is the U.S. government's official web portal to all federal, state and local government web resources and services.